Terminal Aerodrome Forecast
Issued by NWS

Home | Current Version | Previous Version | Text Only | Print | Product List | Glossary On
Versions: 1 2 3 4 5 6 7 8 9 10 11 12 13 14
000
FTUS41 KBGM 162328
TAFRME
TAF
KRME 162328Z 1700/1724 VRB03KT P6SM BKN150
     FM170900 10004KT P6SM OVC080
     FM171400 10008KT 5SM -FZRA BR OVC035
     FM171600 10010KT 4SM -RA BR OVC025
     FM171800 10010KT 3SM -RA BR OVC008=

USA.gov is the U.S. government's official web portal to all federal, state and local government web resources and services.